sensor_id;sensor_type;location;lat;lon;timestamp;P1;durP1;ratioP1;P2;durP2;ratioP2
50267;SDS011;36153;50.960;6.220;2023-05-17T00:00:33;5.40;;;2.10;;
50267;SDS011;36153;50.960;6.220;2023-05-17T00:03:34;4.50;;;2.50;;
50267;SDS011;36153;50.960;6.220;2023-05-17T00:06:35;4.07;;;2.10;;
50267;SDS011;36153;50.960;6.220;2023-05-17T00:09:35;4.15;;;2.28;;
50267;SDS011;36153;50.960;6.220;2023-05-17T00:12:36;3.40;;;2.25;;
50267;SDS011;36153;50.960;6.220;2023-05-17T00:15:36;5.50;;;2.60;;
50267;SDS011;36153;50.960;6.220;2023-05-17T00:18:36;4.50;;;2.17;;
50267;SDS011;36153;50.960;6.220;2023-05-17T00:21:37;6.53;;;2.45;;
50267;SDS011;36153;50.960;6.220;2023-05-17T00:24:38;5.25;;;2.50;;
50267;SDS011;36153;50.960;6.220;2023-05-17T00:27:38;4.40;;;2.30;;
50267;SDS011;36153;50.960;6.220;2023-05-17T00:30:39;4.57;;;2.63;;
50267;SDS011;36153;50.960;6.220;2023-05-17T00:33:39;4.25;;;2.50;;
50267;SDS011;36153;50.960;6.220;2023-05-17T00:36:40;6.95;;;2.33;;
50267;SDS011;36153;50.960;6.220;2023-05-17T00:39:43;3.63;;;2.38;;
50267;SDS011;36153;50.960;6.220;2023-05-17T00:42:43;5.82;;;2.47;;
50267;SDS011;36153;50.960;6.220;2023-05-17T00:45:44;4.75;;;2.40;;
50267;SDS011;36153;50.960;6.220;2023-05-17T00:48:44;8.20;;;2.60;;
50267;SDS011;36153;50.960;6.220;2023-05-17T00:51:47;3.75;;;2.47;;
50267;SDS011;36153;50.960;6.220;2023-05-17T00:54:47;6.40;;;2.35;;
50267;SDS011;36153;50.960;6.220;2023-05-17T00:57:49;4.22;;;2.60;;
50267;SDS011;36153;50.960;6.220;2023-05-17T01:00:50;4.22;;;2.72;;
50267;SDS011;36153;50.960;6.220;2023-05-17T01:03:50;6.25;;;2.50;;
50267;SDS011;36153;50.960;6.220;2023-05-17T01:07:00;5.22;;;2.53;;
50267;SDS011;36153;50.960;6.220;2023-05-17T01:10:00;5.20;;;2.50;;
50267;SDS011;36153;50.960;6.220;2023-05-17T01:16:11;17.05;;;2.90;;
50267;SDS011;36153;50.960;6.220;2023-05-17T01:26:09;4.97;;;2.97;;
50267;SDS011;36153;50.960;6.220;2023-05-17T01:29:15;4.45;;;2.67;;
50267;SDS011;36153;50.960;6.220;2023-05-17T01:32:20;7.63;;;2.75;;
50267;SDS011;36153;50.960;6.220;2023-05-17T01:35:21;5.50;;;3.00;;
50267;SDS011;36153;50.960;6.220;2023-05-17T01:38:22;8.35;;;2.95;;
50267;SDS011;36153;50.960;6.220;2023-05-17T01:41:26;5.70;;;2.80;;
50267;SDS011;36153;50.960;6.220;2023-05-17T01:50:49;7.47;;;2.95;;
50267;SDS011;36153;50.960;6.220;2023-05-17T01:53:54;17.70;;;3.08;;
50267;SDS011;36153;50.960;6.220;2023-05-17T01:57:00;5.43;;;2.63;;
50267;SDS011;36153;50.960;6.220;2023-05-17T02:00:11;4.95;;;3.10;;
50267;SDS011;36153;50.960;6.220;2023-05-17T02:03:16;10.85;;;2.85;;
50267;SDS011;36153;50.960;6.220;2023-05-17T02:06:17;4.95;;;2.35;;
50267;SDS011;36153;50.960;6.220;2023-05-17T02:09:41;9.00;;;3.50;;
50267;SDS011;36153;50.960;6.220;2023-05-17T02:12:43;5.28;;;2.47;;
50267;SDS011;36153;50.960;6.220;2023-05-17T02:15:44;3.75;;;2.65;;
50267;SDS011;36153;50.960;6.220;2023-05-17T02:18:44;7.10;;;2.97;;
50267;SDS011;36153;50.960;6.220;2023-05-17T02:21:44;7.05;;;3.00;;
50267;SDS011;36153;50.960;6.220;2023-05-17T02:24:45;7.05;;;2.70;;
50267;SDS011;36153;50.960;6.220;2023-05-17T02:27:46;6.10;;;2.83;;
50267;SDS011;36153;50.960;6.220;2023-05-17T02:30:46;5.60;;;3.03;;
50267;SDS011;36153;50.960;6.220;2023-05-17T02:33:46;5.72;;;2.97;;
50267;SDS011;36153;50.960;6.220;2023-05-17T02:36:47;7.15;;;3.08;;
50267;SDS011;36153;50.960;6.220;2023-05-17T02:39:47;8.68;;;3.20;;
50267;SDS011;36153;50.960;6.220;2023-05-17T02:42:47;9.43;;;3.00;;
50267;SDS011;36153;50.960;6.220;2023-05-17T02:45:48;5.93;;;2.83;;
50267;SDS011;36153;50.960;6.220;2023-05-17T02:48:48;6.28;;;3.15;;
50267;SDS011;36153;50.960;6.220;2023-05-17T02:51:49;6.15;;;3.45;;
50267;SDS011;36153;50.960;6.220;2023-05-17T02:54:49;8.77;;;3.35;;
50267;SDS011;36153;50.960;6.220;2023-05-17T02:57:50;6.38;;;3.25;;
50267;SDS011;36153;50.960;6.220;2023-05-17T03:00:51;11.75;;;3.67;;
50267;SDS011;36153;50.960;6.220;2023-05-17T03:03:52;7.63;;;3.08;;
50267;SDS011;36153;50.960;6.220;2023-05-17T03:06:52;8.52;;;2.50;;
50267;SDS011;36153;50.960;6.220;2023-05-17T03:09:52;11.32;;;3.60;;
50267;SDS011;36153;50.960;6.220;2023-05-17T03:12:53;7.70;;;3.08;;
50267;SDS011;36153;50.960;6.220;2023-05-17T03:15:53;12.45;;;3.78;;
50267;SDS011;36153;50.960;6.220;2023-05-17T03:18:54;5.80;;;3.42;;
50267;SDS011;36153;50.960;6.220;2023-05-17T03:21:57;8.25;;;3.35;;
50267;SDS011;36153;50.960;6.220;2023-05-17T03:24:57;4.03;;;3.05;;
50267;SDS011;36153;50.960;6.220;2023-05-17T03:27:58;6.97;;;3.28;;
50267;SDS011;36153;50.960;6.220;2023-05-17T03:30:58;5.38;;;3.00;;
50267;SDS011;36153;50.960;6.220;2023-05-17T03:34:01;8.02;;;3.13;;
50267;SDS011;36153;50.960;6.220;2023-05-17T03:37:04;4.88;;;3.05;;
50267;SDS011;36153;50.960;6.220;2023-05-17T03:40:05;9.23;;;3.50;;
50267;SDS011;36153;50.960;6.220;2023-05-17T03:43:05;6.93;;;3.50;;
50267;SDS011;36153;50.960;6.220;2023-05-17T03:46:06;9.10;;;3.65;;
50267;SDS011;36153;50.960;6.220;2023-05-17T03:49:06;7.03;;;3.13;;
50267;SDS011;36153;50.960;6.220;2023-05-17T03:52:10;5.97;;;2.67;;
50267;SDS011;36153;50.960;6.220;2023-05-17T03:55:10;7.82;;;3.30;;
50267;SDS011;36153;50.960;6.220;2023-05-17T03:58:11;12.07;;;4.05;;
50267;SDS011;36153;50.960;6.220;2023-05-17T04:01:11;5.95;;;3.17;;
50267;SDS011;36153;50.960;6.220;2023-05-17T04:04:12;7.20;;;3.58;;
50267;SDS011;36153;50.960;6.220;2023-05-17T04:07:12;8.50;;;3.30;;
50267;SDS011;36153;50.960;6.220;2023-05-17T04:10:12;10.68;;;3.70;;
50267;SDS011;36153;50.960;6.220;2023-05-17T04:13:13;8.05;;;3.33;;
50267;SDS011;36153;50.960;6.220;2023-05-17T04:16:31;8.52;;;3.63;;
50267;SDS011;36153;50.960;6.220;2023-05-17T04:19:35;8.65;;;3.30;;
50267;SDS011;36153;50.960;6.220;2023-05-17T04:22:35;15.50;;;3.88;;
50267;SDS011;36153;50.960;6.220;2023-05-17T04:25:42;9.18;;;3.45;;
50267;SDS011;36153;50.960;6.220;2023-05-17T04:28:42;12.10;;;4.07;;
50267;SDS011;36153;50.960;6.220;2023-05-17T04:31:46;6.75;;;3.25;;
50267;SDS011;36153;50.960;6.220;2023-05-17T04:34:48;9.27;;;4.43;;
50267;SDS011;36153;50.960;6.220;2023-05-17T04:37:48;10.20;;;3.55;;
50267;SDS011;36153;50.960;6.220;2023-05-17T04:40:48;6.35;;;3.55;;
50267;SDS011;36153;50.960;6.220;2023-05-17T04:43:49;7.85;;;3.85;;
50267;SDS011;36153;50.960;6.220;2023-05-17T04:46:50;8.88;;;4.03;;
50267;SDS011;36153;50.960;6.220;2023-05-17T04:49:51;10.98;;;5.05;;
50267;SDS011;36153;50.960;6.220;2023-05-17T04:52:51;10.23;;;4.53;;
50267;SDS011;36153;50.960;6.220;2023-05-17T04:55:51;9.23;;;4.45;;
50267;SDS011;36153;50.960;6.220;2023-05-17T04:58:52;7.50;;;3.78;;
50267;SDS011;36153;50.960;6.220;2023-05-17T05:01:52;10.98;;;4.45;;
50267;SDS011;36153;50.960;6.220;2023-05-17T05:04:52;8.07;;;3.40;;
50267;SDS011;36153;50.960;6.220;2023-05-17T05:07:53;7.60;;;3.65;;
50267;SDS011;36153;50.960;6.220;2023-05-17T05:10:53;7.65;;;3.50;;
50267;SDS011;36153;50.960;6.220;2023-05-17T05:13:53;6.88;;;3.00;;
50267;SDS011;36153;50.960;6.220;2023-05-17T05:16:54;9.48;;;3.65;;
50267;SDS011;36153;50.960;6.220;2023-05-17T05:19:58;9.68;;;4.00;;
50267;SDS011;36153;50.960;6.220;2023-05-17T05:22:58;9.70;;;4.05;;
50267;SDS011;36153;50.960;6.220;2023-05-17T05:25:59;8.27;;;3.97;;
50267;SDS011;36153;50.960;6.220;2023-05-17T05:29:00;11.32;;;4.05;;
50267;SDS011;36153;50.960;6.220;2023-05-17T05:32:00;7.93;;;4.07;;
50267;SDS011;36153;50.960;6.220;2023-05-17T05:35:01;10.27;;;4.13;;
50267;SDS011;36153;50.960;6.220;2023-05-17T05:38:03;11.27;;;3.83;;
50267;SDS011;36153;50.960;6.220;2023-05-17T05:41:03;14.85;;;4.15;;
50267;SDS011;36153;50.960;6.220;2023-05-17T05:44:04;13.90;;;5.40;;
50267;SDS011;36153;50.960;6.220;2023-05-17T05:47:04;11.18;;;4.65;;
50267;SDS011;36153;50.960;6.220;2023-05-17T05:50:05;14.40;;;4.78;;
50267;SDS011;36153;50.960;6.220;2023-05-17T05:53:06;10.45;;;4.53;;
50267;SDS011;36153;50.960;6.220;2023-05-17T05:56:06;9.02;;;4.03;;
50267;SDS011;36153;50.960;6.220;2023-05-17T05:59:06;9.18;;;4.32;;
50267;SDS011;36153;50.960;6.220;2023-05-17T06:02:07;10.57;;;4.07;;
50267;SDS011;36153;50.960;6.220;2023-05-17T06:05:10;9.43;;;4.15;;
50267;SDS011;36153;50.960;6.220;2023-05-17T06:08:10;8.38;;;3.50;;
50267;SDS011;36153;50.960;6.220;2023-05-17T06:11:11;9.52;;;3.80;;
50267;SDS011;36153;50.960;6.220;2023-05-17T06:14:11;11.77;;;4.25;;
50267;SDS011;36153;50.960;6.220;2023-05-17T06:17:11;12.38;;;4.28;;
50267;SDS011;36153;50.960;6.220;2023-05-17T06:20:12;9.70;;;4.32;;
50267;SDS011;36153;50.960;6.220;2023-05-17T06:23:13;9.00;;;4.60;;
50267;SDS011;36153;50.960;6.220;2023-05-17T06:26:14;13.27;;;5.57;;
50267;SDS011;36153;50.960;6.220;2023-05-17T06:29:14;11.35;;;4.63;;
50267;SDS011;36153;50.960;6.220;2023-05-17T06:32:14;11.70;;;4.57;;
50267;SDS011;36153;50.960;6.220;2023-05-17T06:35:15;14.35;;;4.80;;
50267;SDS011;36153;50.960;6.220;2023-05-17T06:38:15;14.00;;;4.65;;
50267;SDS011;36153;50.960;6.220;2023-05-17T06:41:15;13.05;;;5.53;;
50267;SDS011;36153;50.960;6.220;2023-05-17T06:44:16;13.65;;;6.72;;
50267;SDS011;36153;50.960;6.220;2023-05-17T06:47:16;12.95;;;5.90;;
50267;SDS011;36153;50.960;6.220;2023-05-17T06:50:17;15.30;;;7.00;;
50267;SDS011;36153;50.960;6.220;2023-05-17T06:53:20;14.60;;;6.72;;
50267;SDS011;36153;50.960;6.220;2023-05-17T06:56:21;13.38;;;6.38;;
50267;SDS011;36153;50.960;6.220;2023-05-17T06:59:21;14.10;;;6.30;;
50267;SDS011;36153;50.960;6.220;2023-05-17T07:02:21;12.25;;;5.40;;
50267;SDS011;36153;50.960;6.220;2023-05-17T07:05:22;14.55;;;5.90;;
50267;SDS011;36153;50.960;6.220;2023-05-17T07:08:27;12.18;;;5.88;;
50267;SDS011;36153;50.960;6.220;2023-05-17T07:11:30;12.77;;;6.03;;
50267;SDS011;36153;50.960;6.220;2023-05-17T07:14:30;9.63;;;4.40;;
50267;SDS011;36153;50.960;6.220;2023-05-17T07:17:31;12.65;;;5.18;;
50267;SDS011;36153;50.960;6.220;2023-05-17T07:20:31;11.68;;;4.95;;
50267;SDS011;36153;50.960;6.220;2023-05-17T07:23:32;13.73;;;5.13;;
50267;SDS011;36153;50.960;6.220;2023-05-17T07:26:35;8.82;;;3.95;;
50267;SDS011;36153;50.960;6.220;2023-05-17T07:29:35;11.50;;;4.68;;
50267;SDS011;36153;50.960;6.220;2023-05-17T07:32:36;7.00;;;3.97;;
50267;SDS011;36153;50.960;6.220;2023-05-17T07:35:36;11.27;;;4.65;;
50267;SDS011;36153;50.960;6.220;2023-05-17T07:38:36;9.95;;;4.13;;
50267;SDS011;36153;50.960;6.220;2023-05-17T07:41:37;9.25;;;3.95;;
50267;SDS011;36153;50.960;6.220;2023-05-17T07:44:37;10.63;;;4.45;;
50267;SDS011;36153;50.960;6.220;2023-05-17T07:47:38;11.98;;;4.18;;
50267;SDS011;36153;50.960;6.220;2023-05-17T07:50:38;10.30;;;4.63;;
50267;SDS011;36153;50.960;6.220;2023-05-17T07:53:38;9.35;;;3.72;;
50267;SDS011;36153;50.960;6.220;2023-05-17T07:56:39;12.02;;;3.58;;
50267;SDS011;36153;50.960;6.220;2023-05-17T07:59:39;11.40;;;3.25;;
50267;SDS011;36153;50.960;6.220;2023-05-17T08:02:40;9.07;;;3.75;;
50267;SDS011;36153;50.960;6.220;2023-05-17T08:05:42;6.68;;;3.10;;
50267;SDS011;36153;50.960;6.220;2023-05-17T08:08:42;7.45;;;3.35;;
50267;SDS011;36153;50.960;6.220;2023-05-17T08:11:43;13.02;;;3.03;;
50267;SDS011;36153;50.960;6.220;2023-05-17T08:14:46;13.00;;;3.40;;
50267;SDS011;36153;50.960;6.220;2023-05-17T08:17:50;8.73;;;3.35;;
50267;SDS011;36153;50.960;6.220;2023-05-17T08:20:50;7.13;;;3.22;;
50267;SDS011;36153;50.960;6.220;2023-05-17T08:23:51;11.13;;;2.85;;
50267;SDS011;36153;50.960;6.220;2023-05-17T08:26:51;7.10;;;2.65;;
50267;SDS011;36153;50.960;6.220;2023-05-17T08:29:55;8.05;;;2.22;;
50267;SDS011;36153;50.960;6.220;2023-05-17T08:32:56;7.65;;;2.30;;
50267;SDS011;36153;50.960;6.220;2023-05-17T08:35:57;4.93;;;2.10;;
50267;SDS011;36153;50.960;6.220;2023-05-17T08:39:00;8.13;;;2.33;;
50267;SDS011;36153;50.960;6.220;2023-05-17T08:42:00;9.32;;;2.85;;
50267;SDS011;36153;50.960;6.220;2023-05-17T08:45:01;6.65;;;2.17;;
50267;SDS011;36153;50.960;6.220;2023-05-17T08:48:02;8.60;;;2.58;;
50267;SDS011;36153;50.960;6.220;2023-05-17T08:51:04;8.60;;;2.60;;
50267;SDS011;36153;50.960;6.220;2023-05-17T08:54:05;7.47;;;3.22;;
50267;SDS011;36153;50.960;6.220;2023-05-17T08:57:05;7.55;;;2.65;;
50267;SDS011;36153;50.960;6.220;2023-05-17T09:00:07;6.97;;;2.28;;
50267;SDS011;36153;50.960;6.220;2023-05-17T09:03:13;6.20;;;2.05;;
50267;SDS011;36153;50.960;6.220;2023-05-17T09:06:19;5.85;;;2.42;;
50267;SDS011;36153;50.960;6.220;2023-05-17T09:09:20;5.45;;;1.90;;
50267;SDS011;36153;50.960;6.220;2023-05-17T09:12:21;6.25;;;1.48;;
50267;SDS011;36153;50.960;6.220;2023-05-17T09:15:21;8.02;;;1.33;;
50267;SDS011;36153;50.960;6.220;2023-05-17T09:18:29;5.65;;;1.45;;
50267;SDS011;36153;50.960;6.220;2023-05-17T09:21:31;6.15;;;1.50;;
50267;SDS011;36153;50.960;6.220;2023-05-17T09:24:32;7.97;;;1.73;;
50267;SDS011;36153;50.960;6.220;2023-05-17T09:27:32;7.45;;;1.42;;
50267;SDS011;36153;50.960;6.220;2023-05-17T09:30:33;3.75;;;1.27;;
50267;SDS011;36153;50.960;6.220;2023-05-17T09:33:43;7.60;;;1.58;;
50267;SDS011;36153;50.960;6.220;2023-05-17T09:36:45;5.68;;;1.33;;
50267;SDS011;36153;50.960;6.220;2023-05-17T09:39:46;7.30;;;1.35;;
50267;SDS011;36153;50.960;6.220;2023-05-17T09:42:46;5.60;;;1.67;;
50267;SDS011;36153;50.960;6.220;2023-05-17T09:45:53;4.68;;;1.77;;
50267;SDS011;36153;50.960;6.220;2023-05-17T09:48:55;4.80;;;1.55;;
50267;SDS011;36153;50.960;6.220;2023-05-17T09:51:56;7.15;;;1.40;;
50267;SDS011;36153;50.960;6.220;2023-05-17T09:54:57;6.35;;;1.55;;
50267;SDS011;36153;50.960;6.220;2023-05-17T09:58:01;6.40;;;1.48;;
50267;SDS011;36153;50.960;6.220;2023-05-17T10:01:03;6.82;;;1.70;;
50267;SDS011;36153;50.960;6.220;2023-05-17T10:04:08;2.65;;;1.17;;
50267;SDS011;36153;50.960;6.220;2023-05-17T10:07:09;5.57;;;1.67;;
50267;SDS011;36153;50.960;6.220;2023-05-17T10:10:10;5.47;;;1.10;;
50267;SDS011;36153;50.960;6.220;2023-05-17T10:13:12;5.43;;;1.30;;
50267;SDS011;36153;50.960;6.220;2023-05-17T10:16:19;5.07;;;1.17;;
50267;SDS011;36153;50.960;6.220;2023-05-17T10:19:22;6.85;;;1.25;;
50267;SDS011;36153;50.960;6.220;2023-05-17T10:22:24;5.95;;;1.10;;
50267;SDS011;36153;50.960;6.220;2023-05-17T10:25:28;4.45;;;1.05;;
50267;SDS011;36153;50.960;6.220;2023-05-17T10:28:30;6.88;;;1.38;;
50267;SDS011;36153;50.960;6.220;2023-05-17T10:32:04;5.28;;;1.50;;
50267;SDS011;36153;50.960;6.220;2023-05-17T10:35:11;5.35;;;1.50;;
50267;SDS011;36153;50.960;6.220;2023-05-17T10:38:14;4.55;;;1.35;;
50267;SDS011;36153;50.960;6.220;2023-05-17T10:41:15;6.45;;;1.92;;
50267;SDS011;36153;50.960;6.220;2023-05-17T10:44:18;5.95;;;1.50;;
50267;SDS011;36153;50.960;6.220;2023-05-17T10:47:19;5.13;;;1.48;;
50267;SDS011;36153;50.960;6.220;2023-05-17T10:50:21;4.18;;;1.45;;
50267;SDS011;36153;50.960;6.220;2023-05-17T10:53:25;3.42;;;1.70;;
50267;SDS011;36153;50.960;6.220;2023-05-17T10:56:26;4.80;;;1.60;;
50267;SDS011;36153;50.960;6.220;2023-05-17T10:59:26;6.53;;;1.55;;
50267;SDS011;36153;50.960;6.220;2023-05-17T11:02:29;6.82;;;1.45;;
50267;SDS011;36153;50.960;6.220;2023-05-17T11:05:30;4.32;;;1.52;;
50267;SDS011;36153;50.960;6.220;2023-05-17T11:08:31;14.88;;;1.92;;
50267;SDS011;36153;50.960;6.220;2023-05-17T11:11:32;4.60;;;1.63;;
50267;SDS011;36153;50.960;6.220;2023-05-17T11:14:45;8.20;;;1.30;;
50267;SDS011;36153;50.960;6.220;2023-05-17T11:17:47;6.03;;;1.85;;
50267;SDS011;36153;50.960;6.220;2023-05-17T11:20:49;5.43;;;1.63;;
50267;SDS011;36153;50.960;6.220;2023-05-17T11:24:07;5.43;;;1.67;;
50267;SDS011;36153;50.960;6.220;2023-05-17T11:27:09;4.93;;;1.63;;
50267;SDS011;36153;50.960;6.220;2023-05-17T11:30:15;6.80;;;2.00;;
50267;SDS011;36153;50.960;6.220;2023-05-17T11:33:36;4.10;;;1.77;;
50267;SDS011;36153;50.960;6.220;2023-05-17T11:36:53;4.63;;;1.55;;
50267;SDS011;36153;50.960;6.220;2023-05-17T11:40:01;6.28;;;1.85;;
50267;SDS011;36153;50.960;6.220;2023-05-17T11:46:16;6.80;;;1.70;;
50267;SDS011;36153;50.960;6.220;2023-05-17T11:49:19;6.15;;;2.08;;
50267;SDS011;36153;50.960;6.220;2023-05-17T11:52:19;6.90;;;1.55;;
50267;SDS011;36153;50.960;6.220;2023-05-17T11:55:20;4.65;;;1.85;;
50267;SDS011;36153;50.960;6.220;2023-05-17T11:58:24;6.55;;;1.80;;
50267;SDS011;36153;50.960;6.220;2023-05-17T12:01:26;3.08;;;1.70;;
50267;SDS011;36153;50.960;6.220;2023-05-17T12:04:26;6.10;;;1.55;;
50267;SDS011;36153;50.960;6.220;2023-05-17T12:07:27;6.57;;;1.88;;
50267;SDS011;36153;50.960;6.220;2023-05-17T12:10:27;5.55;;;1.50;;
50267;SDS011;36153;50.960;6.220;2023-05-17T12:13:28;5.07;;;1.95;;
50267;SDS011;36153;50.960;6.220;2023-05-17T12:16:29;4.47;;;1.50;;
50267;SDS011;36153;50.960;6.220;2023-05-17T12:19:31;6.32;;;1.88;;
50267;SDS011;36153;50.960;6.220;2023-05-17T12:22:31;5.95;;;2.00;;
50267;SDS011;36153;50.960;6.220;2023-05-17T12:25:32;6.50;;;1.77;;
50267;SDS011;36153;50.960;6.220;2023-05-17T12:28:33;7.25;;;1.73;;
50267;SDS011;36153;50.960;6.220;2023-05-17T12:31:35;8.50;;;1.88;;
50267;SDS011;36153;50.960;6.220;2023-05-17T12:34:38;6.15;;;1.65;;
50267;SDS011;36153;50.960;6.220;2023-05-17T12:37:40;3.60;;;1.25;;
50267;SDS011;36153;50.960;6.220;2023-05-17T12:40:41;4.28;;;1.77;;
50267;SDS011;36153;50.960;6.220;2023-05-17T12:43:43;5.10;;;1.83;;
50267;SDS011;36153;50.960;6.220;2023-05-17T12:46:44;8.23;;;2.20;;
50267;SDS011;36153;50.960;6.220;2023-05-17T12:49:52;5.22;;;1.60;;
50267;SDS011;36153;50.960;6.220;2023-05-17T12:52:53;3.88;;;1.70;;
50267;SDS011;36153;50.960;6.220;2023-05-17T12:55:55;8.20;;;1.90;;
50267;SDS011;36153;50.960;6.220;2023-05-17T13:02:09;5.40;;;1.80;;
50267;SDS011;36153;50.960;6.220;2023-05-17T13:05:16;6.35;;;1.52;;
50267;SDS011;36153;50.960;6.220;2023-05-17T13:08:23;4.80;;;1.40;;
50267;SDS011;36153;50.960;6.220;2023-05-17T13:11:24;6.00;;;1.80;;
50267;SDS011;36153;50.960;6.220;2023-05-17T13:17:46;3.03;;;1.52;;
50267;SDS011;36153;50.960;6.220;2023-05-17T13:20:48;4.55;;;1.30;;
50267;SDS011;36153;50.960;6.220;2023-05-17T13:23:50;4.43;;;1.30;;
50267;SDS011;36153;50.960;6.220;2023-05-17T13:26:51;3.40;;;1.27;;
50267;SDS011;36153;50.960;6.220;2023-05-17T13:29:51;4.28;;;1.50;;
50267;SDS011;36153;50.960;6.220;2023-05-17T13:32:51;7.13;;;1.92;;
50267;SDS011;36153;50.960;6.220;2023-05-17T13:35:53;6.00;;;1.58;;
50267;SDS011;36153;50.960;6.220;2023-05-17T13:38:54;6.45;;;1.77;;
50267;SDS011;36153;50.960;6.220;2023-05-17T13:41:55;5.03;;;2.00;;
50267;SDS011;36153;50.960;6.220;2023-05-17T13:44:56;3.05;;;1.55;;
50267;SDS011;36153;50.960;6.220;2023-05-17T13:47:57;4.47;;;1.70;;
50267;SDS011;36153;50.960;6.220;2023-05-17T13:50:58;5.22;;;1.80;;
50267;SDS011;36153;50.960;6.220;2023-05-17T13:53:59;3.35;;;1.23;;
50267;SDS011;36153;50.960;6.220;2023-05-17T13:57:05;4.15;;;1.75;;
50267;SDS011;36153;50.960;6.220;2023-05-17T14:00:13;4.38;;;1.35;;
50267;SDS011;36153;50.960;6.220;2023-05-17T14:03:24;5.97;;;1.92;;
50267;SDS011;36153;50.960;6.220;2023-05-17T14:06:40;5.25;;;1.52;;
50267;SDS011;36153;50.960;6.220;2023-05-17T14:09:48;3.88;;;1.45;;
50267;SDS011;36153;50.960;6.220;2023-05-17T14:12:49;3.08;;;1.40;;
50267;SDS011;36153;50.960;6.220;2023-05-17T14:16:04;4.50;;;1.95;;
50267;SDS011;36153;50.960;6.220;2023-05-17T14:19:15;4.05;;;1.58;;
50267;SDS011;36153;50.960;6.220;2023-05-17T14:22:21;5.53;;;1.83;;
50267;SDS011;36153;50.960;6.220;2023-05-17T14:25:27;4.95;;;1.35;;
50267;SDS011;36153;50.960;6.220;2023-05-17T14:28:27;5.57;;;2.10;;
50267;SDS011;36153;50.960;6.220;2023-05-17T14:31:44;4.75;;;1.40;;
50267;SDS011;36153;50.960;6.220;2023-05-17T14:34:54;4.32;;;2.22;;
50267;SDS011;36153;50.960;6.220;2023-05-17T14:38:07;5.40;;;1.50;;
50267;SDS011;36153;50.960;6.220;2023-05-17T14:41:25;6.28;;;1.60;;
50267;SDS011;36153;50.960;6.220;2023-05-17T14:44:31;6.60;;;1.80;;
50267;SDS011;36153;50.960;6.220;2023-05-17T14:47:37;4.88;;;2.05;;
50267;SDS011;36153;50.960;6.220;2023-05-17T14:50:41;5.20;;;1.75;;
50267;SDS011;36153;50.960;6.220;2023-05-17T14:54:12;3.95;;;1.70;;
50267;SDS011;36153;50.960;6.220;2023-05-17T14:57:26;2.70;;;1.30;;
50267;SDS011;36153;50.960;6.220;2023-05-17T15:00:49;5.03;;;1.80;;
50267;SDS011;36153;50.960;6.220;2023-05-17T15:03:59;3.47;;;1.38;;
50267;SDS011;36153;50.960;6.220;2023-05-17T15:07:10;4.63;;;1.48;;
50267;SDS011;36153;50.960;6.220;2023-05-17T15:15:05;4.30;;;1.70;;
50267;SDS011;36153;50.960;6.220;2023-05-17T15:18:06;6.03;;;3.05;;
50267;SDS011;36153;50.960;6.220;2023-05-17T15:21:13;4.85;;;1.77;;
50267;SDS011;36153;50.960;6.220;2023-05-17T15:24:13;4.40;;;1.95;;
50267;SDS011;36153;50.960;6.220;2023-05-17T15:27:14;7.57;;;2.05;;
50267;SDS011;36153;50.960;6.220;2023-05-17T15:30:19;7.95;;;1.95;;
50267;SDS011;36153;50.960;6.220;2023-05-17T15:33:20;3.67;;;1.48;;
50267;SDS011;36153;50.960;6.220;2023-05-17T15:36:20;5.63;;;1.73;;
50267;SDS011;36153;50.960;6.220;2023-05-17T15:39:24;6.65;;;1.75;;
50267;SDS011;36153;50.960;6.220;2023-05-17T15:42:24;3.30;;;1.58;;
50267;SDS011;36153;50.960;6.220;2023-05-17T15:45:27;4.32;;;2.00;;
50267;SDS011;36153;50.960;6.220;2023-05-17T15:48:27;6.05;;;1.73;;
50267;SDS011;36153;50.960;6.220;2023-05-17T15:51:28;4.53;;;2.58;;
50267;SDS011;36153;50.960;6.220;2023-05-17T15:54:29;6.03;;;2.10;;
50267;SDS011;36153;50.960;6.220;2023-05-17T15:57:29;3.28;;;1.90;;
50267;SDS011;36153;50.960;6.220;2023-05-17T16:00:29;3.97;;;1.60;;
50267;SDS011;36153;50.960;6.220;2023-05-17T16:03:31;4.20;;;1.85;;
50267;SDS011;36153;50.960;6.220;2023-05-17T16:06:34;4.90;;;1.60;;
50267;SDS011;36153;50.960;6.220;2023-05-17T16:09:35;7.70;;;2.05;;
50267;SDS011;36153;50.960;6.220;2023-05-17T16:12:36;11.07;;;2.45;;
50267;SDS011;36153;50.960;6.220;2023-05-17T16:18:40;4.45;;;1.70;;
50267;SDS011;36153;50.960;6.220;2023-05-17T16:21:40;3.70;;;1.90;;
50267;SDS011;36153;50.960;6.220;2023-05-17T16:24:44;4.07;;;1.85;;
50267;SDS011;36153;50.960;6.220;2023-05-17T16:27:45;4.15;;;1.60;;
50267;SDS011;36153;50.960;6.220;2023-05-17T16:30:47;5.28;;;2.20;;
50267;SDS011;36153;50.960;6.220;2023-05-17T16:33:49;5.75;;;1.60;;
50267;SDS011;36153;50.960;6.220;2023-05-17T16:36:50;6.93;;;1.83;;
50267;SDS011;36153;50.960;6.220;2023-05-17T16:39:51;4.50;;;2.47;;
50267;SDS011;36153;50.960;6.220;2023-05-17T16:42:51;3.72;;;1.92;;
50267;SDS011;36153;50.960;6.220;2023-05-17T16:45:52;4.00;;;1.83;;
50267;SDS011;36153;50.960;6.220;2023-05-17T16:48:52;4.55;;;2.05;;
50267;SDS011;36153;50.960;6.220;2023-05-17T16:51:54;7.47;;;1.90;;
50267;SDS011;36153;50.960;6.220;2023-05-17T16:54:54;4.18;;;1.63;;
50267;SDS011;36153;50.960;6.220;2023-05-17T16:58:02;7.88;;;2.15;;
50267;SDS011;36153;50.960;6.220;2023-05-17T17:01:02;4.90;;;1.77;;
50267;SDS011;36153;50.960;6.220;2023-05-17T17:04:05;3.22;;;1.52;;
50267;SDS011;36153;50.960;6.220;2023-05-17T17:07:05;4.97;;;1.67;;
50267;SDS011;36153;50.960;6.220;2023-05-17T17:10:09;4.82;;;1.73;;
50267;SDS011;36153;50.960;6.220;2023-05-17T17:13:09;5.32;;;2.20;;
50267;SDS011;36153;50.960;6.220;2023-05-17T17:16:10;4.00;;;2.33;;
50267;SDS011;36153;50.960;6.220;2023-05-17T17:19:10;7.25;;;2.50;;
50267;SDS011;36153;50.960;6.220;2023-05-17T17:22:11;5.70;;;1.77;;
50267;SDS011;36153;50.960;6.220;2023-05-17T17:25:13;4.20;;;2.08;;
50267;SDS011;36153;50.960;6.220;2023-05-17T17:28:13;6.65;;;1.95;;
50267;SDS011;36153;50.960;6.220;2023-05-17T17:31:14;5.93;;;2.78;;
50267;SDS011;36153;50.960;6.220;2023-05-17T17:34:15;6.25;;;1.90;;
50267;SDS011;36153;50.960;6.220;2023-05-17T17:37:15;3.17;;;1.52;;
50267;SDS011;36153;50.960;6.220;2023-05-17T17:40:16;6.60;;;2.00;;
50267;SDS011;36153;50.960;6.220;2023-05-17T17:43:16;6.55;;;1.70;;
50267;SDS011;36153;50.960;6.220;2023-05-17T17:46:16;5.18;;;2.13;;
50267;SDS011;36153;50.960;6.220;2023-05-17T17:49:17;5.30;;;2.05;;
50267;SDS011;36153;50.960;6.220;2023-05-17T17:52:17;4.70;;;1.70;;
50267;SDS011;36153;50.960;6.220;2023-05-17T17:55:18;4.32;;;1.58;;
50267;SDS011;36153;50.960;6.220;2023-05-17T17:58:18;7.38;;;1.85;;
50267;SDS011;36153;50.960;6.220;2023-05-17T18:01:18;5.03;;;2.05;;
50267;SDS011;36153;50.960;6.220;2023-05-17T18:04:19;5.28;;;2.50;;
50267;SDS011;36153;50.960;6.220;2023-05-17T18:07:19;3.65;;;1.60;;
50267;SDS011;36153;50.960;6.220;2023-05-17T18:10:19;4.22;;;1.83;;
50267;SDS011;36153;50.960;6.220;2023-05-17T18:13:22;9.07;;;2.03;;
50267;SDS011;36153;50.960;6.220;2023-05-17T18:16:23;4.53;;;2.45;;
50267;SDS011;36153;50.960;6.220;2023-05-17T18:19:23;4.63;;;1.75;;
50267;SDS011;36153;50.960;6.220;2023-05-17T18:22:24;10.38;;;2.38;;
50267;SDS011;36153;50.960;6.220;2023-05-17T18:25:24;5.20;;;1.48;;
50267;SDS011;36153;50.960;6.220;2023-05-17T18:28:24;2.22;;;1.23;;
50267;SDS011;36153;50.960;6.220;2023-05-17T18:31:25;6.18;;;1.73;;
50267;SDS011;36153;50.960;6.220;2023-05-17T18:34:25;5.50;;;1.70;;
50267;SDS011;36153;50.960;6.220;2023-05-17T18:37:26;9.05;;;2.13;;
50267;SDS011;36153;50.960;6.220;2023-05-17T18:40:27;4.78;;;1.83;;
50267;SDS011;36153;50.960;6.220;2023-05-17T18:43:30;8.38;;;2.40;;
50267;SDS011;36153;50.960;6.220;2023-05-17T18:46:31;5.00;;;1.83;;
50267;SDS011;36153;50.960;6.220;2023-05-17T18:49:31;5.35;;;1.88;;